createdAt,value
2017-05-06T00:00:12.743Z,23.2
2017-05-06T00:01:12.765Z,23.17
2017-05-06T00:02:12.798Z,23.16
2017-05-06T00:03:13.138Z,23.13
2017-05-06T00:04:13.175Z,23.2
2017-05-06T00:05:13.188Z,23.17
2017-05-06T00:06:13.226Z,23.17
2017-05-06T00:07:12.623Z,23.1
2017-05-06T00:08:13.282Z,23.19
2017-05-06T00:09:13.308Z,23.23
2017-05-06T00:10:13.015Z,23.12
2017-05-06T00:11:13.041Z,23.19
2017-05-06T00:12:13.390Z,23.15
2017-05-06T00:13:13.417Z,23.17
2017-05-06T00:14:13.127Z,23.2
2017-05-06T00:15:13.155Z,23.13
2017-05-06T00:16:13.501Z,23.13
2017-05-06T00:17:13.527Z,23.19
2017-05-06T00:18:13.558Z,23.09
2017-05-06T00:19:13.270Z,23.13
2017-05-06T00:20:13.608Z,23.12
2017-05-06T00:21:13.310Z,23.13
2017-05-06T00:22:13.347Z,23.09
2017-05-06T00:23:13.380Z,23.12
2017-05-06T00:24:13.398Z,23.15
2017-05-06T00:25:13.752Z,23.15
2017-05-06T00:26:13.772Z,23.1
2017-05-06T00:27:13.805Z,23.1
2017-05-06T00:28:13.853Z,23.07
2017-05-06T00:29:13.541Z,23.07
2017-05-06T00:30:13.884Z,23.04
2017-05-06T00:31:13.930Z,23.1
2017-05-06T00:32:13.941Z,23.09
2017-05-06T00:33:13.962Z,23.01
2017-05-06T00:34:13.991Z,23.07
2017-05-06T00:35:13.382Z,23.04
2017-05-06T00:36:13.716Z,23.05
2017-05-06T00:37:14.090Z,23.07
2017-05-06T00:38:13.785Z,23.02
2017-05-06T00:39:14.391Z,23.05
2017-05-06T00:40:13.848Z,23.01
2017-05-06T00:41:13.862Z,23.02
2017-05-06T00:42:13.893Z,23.07
2017-05-06T00:43:14.250Z,23.07
2017-05-06T00:44:14.511Z,23
2017-05-06T00:45:13.983Z,23.02
2017-05-06T00:46:13.993Z,23.09
2017-05-06T00:47:14.393Z,23.05
2017-05-06T00:48:14.386Z,22.95
2017-05-06T00:49:14.650Z,23.05
2017-05-06T00:50:14.431Z,23.04
2017-05-06T00:51:14.455Z,23.05
2017-05-06T00:52:14.485Z,23.01
2017-05-06T00:53:14.517Z,23.02
2017-05-06T00:54:14.786Z,23
2017-05-06T00:55:14.566Z,23.01
2017-05-06T00:56:14.588Z,22.94
2017-05-06T00:57:14.636Z,22.94
2017-05-06T00:58:14.652Z,23
2017-05-06T00:59:14.930Z,22.94
2017-05-06T01:00:14.707Z,22.94
2017-05-06T01:01:14.411Z,22.97
2017-05-06T01:02:14.764Z,22.97
2017-05-06T01:03:14.468Z,22.85
2017-05-06T01:04:15.069Z,22.92
2017-05-06T01:05:14.843Z,22.94
2017-05-06T01:06:14.559Z,23.02
2017-05-06T01:07:14.898Z,22.94
2017-05-06T01:08:14.928Z,22.86
2017-05-06T01:09:14.880Z,22.88
2017-05-06T01:10:14.977Z,22.9
2017-05-06T01:11:14.694Z,22.97
2017-05-06T01:12:15.056Z,22.9
2017-05-06T01:13:15.064Z,22.88
2017-05-06T01:14:15.333Z,22.83
2017-05-06T01:15:15.110Z,22.86
2017-05-06T01:16:14.512Z,22.88
2017-05-06T01:17:15.171Z,22.94
2017-05-06T01:18:15.201Z,22.85
2017-05-06T01:19:15.474Z,22.86
2017-05-06T01:20:15.249Z,22.9
2017-05-06T01:21:15.271Z,22.86
2017-05-06T01:22:14.676Z,22.82
2017-05-06T01:23:15.012Z,22.88
2017-05-06T01:24:15.329Z,22.83
2017-05-06T01:25:15.069Z,22.91
2017-05-06T01:26:14.782Z,22.83
2017-05-06T01:27:15.448Z,22.92
2017-05-06T01:28:15.473Z,22.88
2017-05-06T01:29:15.756Z,22.82
2017-05-06T01:30:15.515Z,22.86
2017-05-06T01:31:15.551Z,22.88
2017-05-06T01:32:15.263Z,22.85
2017-05-06T01:33:15.608Z,22.83
2017-05-06T01:34:15.564Z,22.9
2017-05-06T01:35:15.658Z,22.85
2017-05-06T01:36:15.694Z,22.85
2017-05-06T01:37:15.711Z,22.83
2017-05-06T01:38:15.772Z,22.91
2017-05-06T01:39:16.034Z,22.88
2017-05-06T01:40:15.800Z,22.83
2017-05-06T01:41:15.509Z,22.83
2017-05-06T01:42:15.854Z,22.79
2017-05-06T01:43:15.880Z,22.8
2017-05-06T01:44:15.592Z,22.8
2017-05-06T01:45:15.930Z,22.8
2017-05-06T01:46:15.957Z,22.8
2017-05-06T01:47:15.982Z,22.75
2017-05-06T01:48:16.015Z,22.79
2017-05-06T01:49:16.041Z,22.73
2017-05-06T01:50:16.067Z,22.76
2017-05-06T01:51:16.089Z,22.73
2017-05-06T01:52:15.490Z,22.79
2017-05-06T01:53:16.147Z,22.79
2017-05-06T01:54:16.208Z,22.75
2017-05-06T01:55:15.892Z,22.73
2017-05-06T01:56:15.914Z,22.75
2017-05-06T01:57:16.254Z,22.79
2017-05-06T01:58:15.978Z,22.8
2017-05-06T01:59:15.676Z,22.7
2017-05-06T02:00:16.021Z,22.75
2017-05-06T02:01:16.055Z,22.77
2017-05-06T02:02:16.078Z,22.79
2017-05-06T02:03:16.419Z,22.75
2017-05-06T02:04:16.476Z,22.75
2017-05-06T02:05:16.164Z,22.67
2017-05-06T02:06:16.181Z,22.79
2017-05-06T02:07:16.529Z,22.73
2017-05-06T02:08:16.243Z,22.75
2017-05-06T02:09:16.583Z,22.75
2017-05-06T02:10:16.603Z,22.68
2017-05-06T02:11:16.322Z,22.68
2017-05-06T02:12:16.661Z,22.68
2017-05-06T02:13:16.687Z,22.7
2017-05-06T02:14:16.399Z,22.7
2017-05-06T02:15:16.427Z,22.73
2017-05-06T02:16:16.452Z,22.73
2017-05-06T02:17:16.802Z,22.75
2017-05-06T02:18:16.510Z,22.75
2017-05-06T02:19:16.860Z,22.72
2017-05-06T02:20:16.247Z,22.62
2017-05-06T02:21:16.596Z,22.64
2017-05-06T02:22:16.933Z,22.7
2017-05-06T02:23:16.970Z,22.62
2017-05-06T02:24:16.992Z,22.7
2017-05-06T02:25:16.703Z,22.64
2017-05-06T02:26:17.042Z,22.76
2017-05-06T02:27:16.758Z,22.72
2017-05-06T02:28:17.106Z,22.67
2017-05-06T02:29:17.123Z,22.6
2017-05-06T02:30:16.843Z,22.67
2017-05-06T02:31:17.180Z,22.72
2017-05-06T02:32:16.888Z,22.7
2017-05-06T02:33:17.232Z,22.73
2017-05-06T02:34:16.943Z,22.73
2017-05-06T02:35:17.292Z,22.7
2017-05-06T02:36:17.001Z,22.62
2017-05-06T02:37:17.031Z,22.61
2017-05-06T02:38:17.373Z,22.68
2017-05-06T02:39:17.402Z,22.68
2017-05-06T02:40:17.427Z,22.73
2017-05-06T02:41:17.448Z,22.67
2017-05-06T02:42:17.473Z,22.64
2017-05-06T02:43:17.500Z,22.57
2017-05-06T02:44:17.526Z,22.61
2017-05-06T02:45:17.497Z,22.68
2017-05-06T02:46:17.272Z,22.58
2017-05-06T02:47:17.623Z,22.58
2017-05-06T02:48:17.005Z,22.68
2017-05-06T02:49:17.337Z,22.62
2017-05-06T02:50:17.624Z,22.64
2017-05-06T02:51:17.719Z,22.6
2017-05-06T02:52:17.742Z,22.61
2017-05-06T02:53:17.776Z,22.68
2017-05-06T02:54:17.484Z,22.58
2017-05-06T02:55:18.079Z,22.68
2017-05-06T02:56:17.539Z,22.61
2017-05-06T02:57:17.888Z,22.64
2017-05-06T02:58:17.592Z,22.65
2017-05-06T02:59:17.613Z,22.6
2017-05-06T03:00:17.901Z,22.64
2017-05-06T03:01:17.671Z,22.58
2017-05-06T03:02:18.018Z,22.6
2017-05-06T03:03:18.053Z,22.62
2017-05-06T03:04:17.745Z,22.62
2017-05-06T03:05:18.353Z,22.62
2017-05-06T03:06:18.132Z,22.62
2017-05-06T03:07:18.150Z,22.58
2017-05-06T03:08:18.184Z,22.55
2017-05-06T03:09:18.208Z,22.61
2017-05-06T03:10:18.493Z,22.55
2017-05-06T03:11:18.259Z,22.62
2017-05-06T03:12:18.297Z,22.58
2017-05-06T03:13:18.311Z,22.62
2017-05-06T03:14:18.346Z,22.47
2017-05-06T03:15:18.297Z,22.62
2017-05-06T03:16:18.072Z,22.61
2017-05-06T03:17:18.111Z,22.54
2017-05-06T03:18:18.448Z,22.46
2017-05-06T03:19:18.157Z,22.62
2017-05-06T03:20:18.752Z,22.62
2017-05-06T03:21:18.214Z,22.52
2017-05-06T03:22:18.559Z,22.52
2017-05-06T03:23:18.578Z,22.47
2017-05-06T03:24:18.294Z,22.51
2017-05-06T03:25:18.572Z,22.57
2017-05-06T03:26:18.666Z,22.58
2017-05-06T03:27:18.369Z,22.47
2017-05-06T03:28:18.718Z,22.49
2017-05-06T03:29:18.108Z,22.51
2017-05-06T03:30:19.017Z,22.57
2017-05-06T03:31:18.801Z,22.54
2017-05-06T03:32:18.515Z,22.55
2017-05-06T03:33:18.852Z,22.51
2017-05-06T03:34:18.880Z,22.54
2017-05-06T03:35:18.588Z,22.52
2017-05-06T03:36:18.305Z,22.52
2017-05-06T03:37:18.966Z,22.47
2017-05-06T03:38:18.990Z,22.42
2017-05-06T03:39:18.695Z,22.47
2017-05-06T03:40:18.720Z,22.51
2017-05-06T03:41:18.767Z,22.47
2017-05-06T03:42:19.097Z,22.47
2017-05-06T03:43:18.807Z,22.43
2017-05-06T03:44:18.837Z,22.42
2017-05-06T03:45:19.171Z,22.43
2017-05-06T03:46:18.873Z,22.4
2017-05-06T03:47:19.238Z,22.45
2017-05-06T03:48:19.262Z,22.47
2017-05-06T03:49:18.967Z,22.4
2017-05-06T03:50:19.306Z,22.51
2017-05-06T03:51:19.333Z,22.37
2017-05-06T03:52:19.054Z,22.45
2017-05-06T03:53:19.396Z,22.4
2017-05-06T03:54:19.427Z,22.36
2017-05-06T03:55:19.128Z,22.4
2017-05-06T03:56:19.477Z,22.47
2017-05-06T03:57:19.189Z,22.4
2017-05-06T03:58:19.526Z,22.35
2017-05-06T03:59:19.555Z,22.4
2017-05-06T04:00:19.579Z,22.36
2017-05-06T04:01:19.614Z,22.4
2017-05-06T04:02:19.640Z,22.39
2017-05-06T04:03:19.360Z,22.43
2017-05-06T04:04:19.377Z,22.46
2017-05-06T04:05:19.399Z,22.43
2017-05-06T04:06:19.744Z,22.46
2017-05-06T04:07:19.132Z,22.43
2017-05-06T04:08:19.477Z,22.37
2017-05-06T04:09:19.194Z,22.4
2017-05-06T04:10:19.243Z,22.39
2017-05-06T04:11:19.848Z,22.47
2017-05-06T04:12:19.566Z,22.33
2017-05-06T04:13:19.594Z,22.39
2017-05-06T04:14:19.943Z,22.45
2017-05-06T04:15:19.330Z,22.33
2017-05-06T04:16:19.663Z,22.33
2017-05-06T04:17:19.695Z,22.37
2017-05-06T04:18:19.725Z,22.35
2017-05-06T04:19:19.757Z,22.46
2017-05-06T04:20:20.090Z,22.39
2017-05-06T04:21:20.115Z,22.35
2017-05-06T04:22:20.140Z,22.43
2017-05-06T04:23:19.860Z,22.37
2017-05-06T04:24:20.201Z,22.35
2017-05-06T04:25:19.914Z,22.46
2017-05-06T04:26:20.505Z,22.37
2017-05-06T04:27:20.278Z,22.39
2017-05-06T04:28:20.307Z,22.4
2017-05-06T04:29:20.336Z,22.37
2017-05-06T04:30:20.354Z,22.43
2017-05-06T04:31:20.652Z,22.36
2017-05-06T04:32:20.415Z,22.39
2017-05-06T04:33:20.440Z,22.37
2017-05-06T04:34:20.157Z,22.39
2017-05-06T04:35:20.493Z,22.4
2017-05-06T04:36:20.458Z,22.4
2017-05-06T04:37:20.233Z,22.39
2017-05-06T04:38:20.571Z,22.47
2017-05-06T04:39:20.605Z,22.42
2017-05-06T04:40:20.629Z,22.55
2017-05-06T04:41:20.906Z,22.47
2017-05-06T04:42:20.682Z,22.47
2017-05-06T04:43:20.391Z,22.55
2017-05-06T04:44:20.424Z,22.49
2017-05-06T04:45:20.758Z,22.47
2017-05-06T04:46:20.725Z,22.47
2017-05-06T04:47:20.808Z,22.51
2017-05-06T04:48:20.523Z,22.6
2017-05-06T04:49:20.561Z,22.64
2017-05-06T04:50:20.272Z,22.65
2017-05-06T04:51:21.166Z,22.61
2017-05-06T04:52:20.951Z,22.6
2017-05-06T04:53:20.675Z,22.55
2017-05-06T04:54:20.692Z,22.54
2017-05-06T04:55:20.716Z,22.61
2017-05-06T04:56:21.329Z,22.61
2017-05-06T04:57:20.459Z,22.72
2017-05-06T04:58:21.108Z,22.68
2017-05-06T04:59:21.140Z,22.61
2017-05-06T05:00:21.166Z,22.7
2017-05-06T05:01:21.446Z,22.61
2017-05-06T05:02:21.218Z,22.76
2017-05-06T05:03:21.250Z,22.65
2017-05-06T05:04:20.953Z,22.68
2017-05-06T05:05:21.329Z,22.75
2017-05-06T05:06:21.577Z,22.76
2017-05-06T05:07:21.049Z,22.75
2017-05-06T05:08:21.384Z,22.75
2017-05-06T05:09:21.088Z,22.75
2017-05-06T05:10:21.436Z,22.79
2017-05-06T05:11:21.401Z,22.77
2017-05-06T05:12:21.182Z,22.79
2017-05-06T05:13:21.518Z,22.79
2017-05-06T05:14:21.539Z,22.79
2017-05-06T05:15:21.266Z,22.79
2017-05-06T05:16:21.848Z,22.82
2017-05-06T05:17:21.623Z,22.82
2017-05-06T05:18:21.339Z,22.86
2017-05-06T05:19:21.052Z,22.85
2017-05-06T05:20:21.709Z,22.9
2017-05-06T05:21:21.984Z,22.83
2017-05-06T05:22:21.758Z,22.9
2017-05-06T05:23:21.795Z,22.91
2017-05-06T05:24:21.188Z,22.85
2017-05-06T05:25:21.528Z,22.86
2017-05-06T05:26:21.869Z,22.82
2017-05-06T05:27:21.578Z,22.86
2017-05-06T05:28:21.622Z,22.92
2017-05-06T05:29:21.640Z,22.94
2017-05-06T05:30:21.980Z,23.05
2017-05-06T05:31:21.992Z,23.02
2017-05-06T05:32:21.717Z,23.01
2017-05-06T05:33:21.431Z,23.01
2017-05-06T05:34:22.084Z,23.04
2017-05-06T05:35:22.107Z,22.98
2017-05-06T05:36:21.824Z,23.01
2017-05-06T05:37:21.533Z,23.12
2017-05-06T05:38:22.190Z,23.07
2017-05-06T05:39:22.223Z,23.09
2017-05-06T05:40:21.936Z,23.12
2017-05-06T05:41:21.953Z,23.12
2017-05-06T05:42:21.985Z,23.22
2017-05-06T05:43:22.015Z,23.13
2017-05-06T05:44:22.354Z,23.13
2017-05-06T05:45:22.375Z,23.16
2017-05-06T05:46:22.405Z,23.13
2017-05-06T05:47:22.432Z,23.23
2017-05-06T05:48:22.462Z,23.27
2017-05-06T05:49:22.490Z,23.23
2017-05-06T05:50:22.514Z,23.25
2017-05-06T05:51:22.544Z,23.27
2017-05-06T05:52:22.265Z,23.33
2017-05-06T05:53:22.282Z,23.4
2017-05-06T05:54:22.619Z,23.27
2017-05-06T05:55:22.647Z,23.42
2017-05-06T05:56:22.688Z,23.38
2017-05-06T05:57:22.709Z,23.46
2017-05-06T05:58:22.738Z,23.42
2017-05-06T05:59:22.449Z,23.5
2017-05-06T06:00:22.792Z,23.46
2017-05-06T06:01:22.822Z,23.43
2017-05-06T06:02:22.853Z,23.53
2017-05-06T06:03:22.873Z,23.53
2017-05-06T06:04:22.894Z,23.55
2017-05-06T06:05:22.918Z,23.55
2017-05-06T06:06:22.957Z,23.6
2017-05-06T06:07:22.609Z,23.55
2017-05-06T06:08:23.009Z,23.66
2017-05-06T06:09:23.036Z,23.65
2017-05-06T06:10:23.059Z,23.54
2017-05-06T06:11:23.096Z,23.72
2017-05-06T06:12:23.370Z,23.72
2017-05-06T06:13:22.829Z,23.7
2017-05-06T06:14:22.864Z,23.76
2017-05-06T06:15:22.889Z,23.73
2017-05-06T06:16:23.228Z,23.8
2017-05-06T06:17:23.192Z,23.73
2017-05-06T06:18:22.970Z,23.75
2017-05-06T06:19:22.994Z,23.72
2017-05-06T06:20:23.338Z,23.73
2017-05-06T06:21:23.366Z,23.76
2017-05-06T06:22:23.336Z,23.78
2017-05-06T06:23:23.423Z,23.75
2017-05-06T06:24:23.134Z,23.75
2017-05-06T06:25:23.167Z,23.78
2017-05-06T06:26:22.876Z,23.8
2017-05-06T06:27:23.475Z,23.83
2017-05-06T06:28:23.247Z,23.76
2017-05-06T06:29:23.585Z,23.76
2017-05-06T06:30:23.291Z,23.78
2017-05-06T06:31:23.327Z,23.8
2017-05-06T06:32:23.605Z,23.79
2017-05-06T06:33:23.697Z,23.75
2017-05-06T06:34:23.727Z,23.73
2017-05-06T06:35:23.438Z,23.72
2017-05-06T06:36:23.779Z,23.78
2017-05-06T06:37:23.741Z,23.79
2017-05-06T06:38:23.524Z,23.83
2017-05-06T06:39:23.857Z,23.78
2017-05-06T06:40:23.887Z,23.8
2017-05-06T06:41:23.915Z,23.87
2017-05-06T06:42:24.211Z,23.78
2017-05-06T06:43:23.964Z,23.8
2017-05-06T06:44:24.002Z,23.78
2017-05-06T06:45:24.027Z,23.79
2017-05-06T06:46:24.058Z,23.79
2017-05-06T06:47:24.331Z,23.83
2017-05-06T06:48:24.117Z,23.76
2017-05-06T06:49:24.141Z,23.75
2017-05-06T06:50:23.546Z,23.8
2017-05-06T06:51:24.195Z,23.78
2017-05-06T06:52:24.474Z,23.79
2017-05-06T06:53:24.249Z,23.88
2017-05-06T06:54:24.274Z,23.78
2017-05-06T06:55:24.306Z,23.8
2017-05-06T06:56:24.335Z,23.79
2017-05-06T06:57:24.607Z,23.83
2017-05-06T06:58:24.383Z,23.87
2017-05-06T06:59:24.420Z,23.83
2017-05-06T07:00:24.437Z,23.87
2017-05-06T07:01:24.470Z,23.83
2017-05-06T07:02:24.434Z,23.87
2017-05-06T07:03:24.528Z,23.85
2017-05-06T07:04:24.240Z,23.84
2017-05-06T07:05:23.954Z,23.87
2017-05-06T07:06:24.602Z,23.84
2017-05-06T07:07:24.583Z,23.85
2017-05-06T07:08:24.656Z,23.91
2017-05-06T07:09:24.373Z,23.85
2017-05-06T07:10:24.718Z,23.87
2017-05-06T07:11:24.750Z,23.84
2017-05-06T07:12:25.023Z,23.85
2017-05-06T07:13:24.492Z,23.83
2017-05-06T07:14:24.835Z,23.87
2017-05-06T07:15:24.857Z,23.84
2017-05-06T07:16:24.907Z,23.88
2017-05-06T07:17:24.914Z,23.88
2017-05-06T07:18:24.948Z,23.84
2017-05-06T07:19:24.972Z,23.87
2017-05-06T07:20:24.994Z,23.85
2017-05-06T07:21:24.710Z,23.85
2017-05-06T07:22:25.061Z,23.91
2017-05-06T07:23:25.083Z,23.94
2017-05-06T07:24:25.140Z,23.94
2017-05-06T07:25:25.134Z,23.98
2017-05-06T07:26:24.853Z,23.94
2017-05-06T07:27:25.203Z,23.87
2017-05-06T07:28:24.912Z,23.91
2017-05-06T07:29:25.253Z,23.94
2017-05-06T07:30:24.969Z,23.9
2017-05-06T07:31:25.306Z,23.87
2017-05-06T07:32:25.335Z,23.91
2017-05-06T07:33:25.368Z,23.88
2017-05-06T07:34:25.079Z,23.9
2017-05-06T07:35:25.417Z,23.95
2017-05-06T07:36:25.456Z,23.97
2017-05-06T07:37:25.494Z,23.97
2017-05-06T07:38:25.504Z,23.93
2017-05-06T07:39:25.529Z,23.98
2017-05-06T07:40:25.571Z,23.95
2017-05-06T07:41:26.044Z,23.95
2017-05-06T07:42:25.305Z,23.9
2017-05-06T07:43:25.321Z,23.91
2017-05-06T07:44:25.387Z,23.94
2017-05-06T07:45:40.303Z,24
2017-05-06T07:46:26.027Z,23.93
2017-05-06T07:47:25.782Z,23.85
2017-05-06T07:48:26.003Z,23.93
2017-05-06T07:49:25.535Z,23.94
2017-05-06T07:50:26.901Z,23.91
2017-05-06T07:51:26.325Z,23.87
2017-05-06T07:52:27.036Z,23.88
2017-05-06T07:53:40.766Z,23.91
2017-05-06T07:54:26.176Z,23.85
2017-05-06T07:55:26.142Z,23.91
2017-05-06T07:56:40.590Z,23.95
2017-05-06T07:57:26.519Z,23.84
2017-05-06T07:58:55.710Z,23.95
2017-05-06T07:59:27.173Z,23.88
2017-05-06T08:01:40.765Z,23.93
2017-05-06T08:02:26.670Z,23.87
2017-05-06T08:03:26.238Z,23.91
2017-05-06T08:04:26.217Z,23.98
2017-05-06T08:05:41.506Z,23.93
2017-05-06T08:06:26.208Z,23.94
2017-05-06T08:07:26.355Z,23.95
2017-05-06T08:08:26.367Z,24
2017-05-06T08:09:27.617Z,23.98
2017-05-06T08:10:26.413Z,23.94
2017-05-06T08:11:26.959Z,24
2017-05-06T08:13:41.081Z,24
2017-05-06T08:14:27.632Z,23.98
2017-05-06T08:15:26.224Z,23.98
2017-05-06T08:16:26.836Z,24
2017-05-06T08:17:26.928Z,24.05
2017-05-06T08:18:27.102Z,23.97
2017-05-06T08:19:26.588Z,24.06
2017-05-06T08:20:26.704Z,24.06
2017-05-06T08:21:26.692Z,24.05
2017-05-06T08:22:26.725Z,24.05
2017-05-06T08:23:26.758Z,24.05
2017-05-06T08:24:26.732Z,24.08
2017-05-06T08:25:26.820Z,24.03
2017-05-06T08:26:26.529Z,24.06
2017-05-06T08:27:26.582Z,24.02
2017-05-06T08:28:26.586Z,24.05
2017-05-06T08:29:26.869Z,24.08
2017-05-06T08:30:26.332Z,24.08
2017-05-06T08:31:26.989Z,24.1
2017-05-06T08:32:27.015Z,24.09
2017-05-06T08:33:26.726Z,24.06
2017-05-06T08:34:27.008Z,24.06
2017-05-06T08:35:26.473Z,24.12
2017-05-06T08:36:27.116Z,24.08
2017-05-06T08:37:27.153Z,24.1
2017-05-06T08:38:27.183Z,24.18
2017-05-06T08:39:27.479Z,24.22
2017-05-06T08:40:27.235Z,24.15
2017-05-06T08:41:27.264Z,24.18
2017-05-06T08:42:27.293Z,24.13
2017-05-06T08:43:27.007Z,24.15
2017-05-06T08:44:27.599Z,24.12
2017-05-06T08:45:27.376Z,24.13
2017-05-06T08:46:27.405Z,24.08
2017-05-06T08:47:27.125Z,24.18
2017-05-06T08:48:27.145Z,24.08
2017-05-06T08:49:27.744Z,24.18
2017-05-06T08:50:27.527Z,24.13
2017-05-06T08:51:27.547Z,24.15
2017-05-06T08:52:26.948Z,24.15
2017-05-06T08:53:27.597Z,24.15
2017-05-06T08:54:27.561Z,24.09
2017-05-06T08:55:27.660Z,24.13
2017-05-06T08:56:27.691Z,24.12
2017-05-06T08:57:27.722Z,24.1
2017-05-06T08:58:27.750Z,24.12
2017-05-06T08:59:28.022Z,24.09
2017-05-06T09:00:27.810Z,24.1
2017-05-06T09:01:27.846Z,24.08
2017-05-06T09:02:27.868Z,24.09
2017-05-06T09:03:27.887Z,24.13
2017-05-06T09:04:27.600Z,24.21
2017-05-06T09:05:27.944Z,24.15
2017-05-06T09:06:27.660Z,24.21
2017-05-06T09:07:27.997Z,24.2
2017-05-06T09:08:28.029Z,24.1
2017-05-06T09:09:28.054Z,24.13
2017-05-06T09:10:28.087Z,24.2
2017-05-06T09:11:27.801Z,24.22
2017-05-06T09:12:27.856Z,24.13
2017-05-06T09:13:28.162Z,24.15
2017-05-06T09:14:28.203Z,24.12
2017-05-06T09:15:27.919Z,24.05
2017-05-06T09:16:27.949Z,24.13
2017-05-06T09:17:27.970Z,24.13
2017-05-06T09:18:28.310Z,24.12
2017-05-06T09:19:28.030Z,24.13
2017-05-06T09:20:28.370Z,24.12
2017-05-06T09:21:28.394Z,24.09
2017-05-06T09:22:28.423Z,24.06
2017-05-06T09:23:28.138Z,24.08
2017-05-06T09:24:28.482Z,24.1
2017-05-06T09:25:28.507Z,24.12
2017-05-06T09:26:28.544Z,24.13
2017-05-06T09:27:27.940Z,24.1
2017-05-06T09:28:28.285Z,24.12
2017-05-06T09:29:28.310Z,24.06
2017-05-06T09:30:28.651Z,24.13
2017-05-06T09:31:28.680Z,24.09
2017-05-06T09:32:28.709Z,24.06
2017-05-06T09:33:28.741Z,24.09
2017-05-06T09:34:28.455Z,24.15
2017-05-06T09:35:28.795Z,24.08
2017-05-06T09:36:28.828Z,24.16
2017-05-06T09:37:28.541Z,24.18
2017-05-06T09:38:28.572Z,24.06
2017-05-06T09:39:28.907Z,24.22
2017-05-06T09:40:28.935Z,24.1
2017-05-06T09:41:28.647Z,24.22
2017-05-06T09:42:28.993Z,24.16
2017-05-06T09:43:29.021Z,24.22
2017-05-06T09:44:29.045Z,24.1
2017-05-06T09:45:28.767Z,24.15
2017-05-06T09:46:29.102Z,24.18
2017-05-06T09:47:28.503Z,24.21
2017-05-06T09:48:29.165Z,24.12
2017-05-06T09:49:28.602Z,24.16
2017-05-06T09:50:29.466Z,24.12
2017-05-06T09:51:29.248Z,24.21
2017-05-06T09:52:28.957Z,24.21
2017-05-06T09:53:29.307Z,24.1
2017-05-06T09:54:29.330Z,24.16
2017-05-06T09:55:29.289Z,24.2
2017-05-06T09:56:29.392Z,24.16
2017-05-06T09:57:29.407Z,24.2
2017-05-06T09:58:29.141Z,24.1
2017-05-06T09:59:29.479Z,24.16
2017-05-06T10:00:29.446Z,24.2
2017-05-06T10:01:29.530Z,24.2
2017-05-06T10:02:29.559Z,24.09
2017-05-06T10:03:29.273Z,24.24
2017-05-06T10:04:29.625Z,24.2
2017-05-06T10:05:29.899Z,24.13
2017-05-06T10:06:29.355Z,24.15
2017-05-06T10:07:29.391Z,24.22
2017-05-06T10:08:29.109Z,24.08
2017-05-06T10:09:29.762Z,24.1
2017-05-06T10:10:30.042Z,24.13
2017-05-06T10:11:29.512Z,24.12
2017-05-06T10:12:29.842Z,24.03
2017-05-06T10:13:29.556Z,24.06
2017-05-06T10:14:29.899Z,24.08
2017-05-06T10:15:29.871Z,24.09
2017-05-06T10:16:29.957Z,23.98
2017-05-06T10:17:29.991Z,24.05
2017-05-06T10:18:29.708Z,24.06
2017-05-06T10:19:30.045Z,24.08
2017-05-06T10:20:30.013Z,24.08
2017-05-06T10:21:29.782Z,23.94
2017-05-06T10:22:29.824Z,24.02
2017-05-06T10:23:29.849Z,24.05
2017-05-06T10:24:30.185Z,24.08
2017-05-06T10:25:30.473Z,23.98
2017-05-06T10:26:30.244Z,24.08
2017-05-06T10:27:29.959Z,24.02
2017-05-06T10:28:30.302Z,24.09
2017-05-06T10:29:30.329Z,24.12
2017-05-06T10:30:30.609Z,24.05
2017-05-06T10:31:30.059Z,24.12
2017-05-06T10:32:30.480Z,24.13
2017-05-06T10:33:30.436Z,24.08
2017-05-06T10:34:30.161Z,24.13
2017-05-06T10:35:30.442Z,24.16
2017-05-06T10:36:30.215Z,24.22
2017-05-06T10:37:30.555Z,24.18
2017-05-06T10:38:30.584Z,24.21
2017-05-06T10:39:30.613Z,24.21
2017-05-06T10:40:30.888Z,24.35
2017-05-06T10:41:30.364Z,24.18
2017-05-06T10:42:30.751Z,24.22
2017-05-06T10:43:30.729Z,24.28
2017-05-06T10:44:30.757Z,24.32
2017-05-06T10:45:30.720Z,24.34
2017-05-06T10:46:30.814Z,24.32
2017-05-06T10:47:30.852Z,24.42
2017-05-06T10:48:30.584Z,24.35
2017-05-06T10:49:30.582Z,24.35
2017-05-06T10:50:31.177Z,24.35
2017-05-06T10:51:30.954Z,24.39
2017-05-06T10:52:30.984Z,24.45
2017-05-06T10:53:31.008Z,24.43
2017-05-06T10:54:31.037Z,24.47
2017-05-06T10:55:31.321Z,24.45
2017-05-06T10:56:31.097Z,24.45
2017-05-06T10:57:31.123Z,24.34
2017-05-06T10:58:31.151Z,24.46
2017-05-06T10:59:31.185Z,24.55
2017-05-06T11:00:30.901Z,24.4
2017-05-06T11:01:30.618Z,24.35
2017-05-06T11:02:31.279Z,24.37
2017-05-06T11:03:31.298Z,24.42
2017-05-06T11:04:31.319Z,24.31
2017-05-06T11:05:31.041Z,24.45
2017-05-06T11:06:31.382Z,24.39
2017-05-06T11:07:31.418Z,24.45
2017-05-06T11:08:31.132Z,24.4
2017-05-06T11:09:31.477Z,24.37
2017-05-06T11:10:31.501Z,24.4
2017-05-06T11:11:31.529Z,24.4
2017-05-06T11:12:31.558Z,24.42
2017-05-06T11:13:30.963Z,24.31
2017-05-06T11:14:31.621Z,24.39
2017-05-06T11:15:31.645Z,24.4
2017-05-06T11:16:31.053Z,24.34
2017-05-06T11:17:31.398Z,24.4
2017-05-06T11:18:31.732Z,24.31
2017-05-06T11:19:31.755Z,24.34
2017-05-06T11:20:31.788Z,24.34
2017-05-06T11:21:31.817Z,24.24
2017-05-06T11:22:31.534Z,24.4
2017-05-06T11:23:31.866Z,24.37
2017-05-06T11:24:31.584Z,24.31
2017-05-06T11:25:31.924Z,24.34
2017-05-06T11:26:31.988Z,24.34
2017-05-06T11:27:32.013Z,24.39
2017-05-06T11:28:32.006Z,24.24
2017-05-06T11:29:32.044Z,24.28
2017-05-06T11:30:32.073Z,24.28
2017-05-06T11:31:32.102Z,24.27
2017-05-06T11:32:31.822Z,24.24
2017-05-06T11:33:31.843Z,24.22
2017-05-06T11:34:32.200Z,24.31
2017-05-06T11:35:31.904Z,24.22
2017-05-06T11:36:32.184Z,24.22
2017-05-06T11:37:32.275Z,24.28
2017-05-06T11:38:31.991Z,24.2
2017-05-06T11:39:32.337Z,24.25
2017-05-06T11:40:32.049Z,24.24
2017-05-06T11:41:32.022Z,24.24
2017-05-06T11:42:32.414Z,24.2
2017-05-06T11:43:32.450Z,24.25
2017-05-06T11:44:32.171Z,24.2
2017-05-06T11:45:32.509Z,24.18
2017-05-06T11:46:32.473Z,24.13
2017-05-06T11:47:31.938Z,24.2
2017-05-06T11:48:32.594Z,24.24
2017-05-06T11:49:32.621Z,24.18
2017-05-06T11:50:32.636Z,24.16
2017-05-06T11:51:32.938Z,24.21
2017-05-06T11:52:32.390Z,24.21
2017-05-06T11:53:32.422Z,24.18
2017-05-06T11:54:32.760Z,24.2
2017-05-06T11:55:32.476Z,24.12
2017-05-06T11:56:32.753Z,24.15
2017-05-06T11:57:32.855Z,24.09
2017-05-06T11:58:32.559Z,24.18
2017-05-06T11:59:32.595Z,24.18
2017-05-06T12:00:32.620Z,24.13
2017-05-06T12:01:32.900Z,24.21
2017-05-06T12:02:32.674Z,24.09
2017-05-06T12:03:32.706Z,24.12
2017-05-06T12:04:33.043Z,24.16
2017-05-06T12:05:33.084Z,24.15
2017-05-06T12:06:33.357Z,24.13
2017-05-06T12:07:32.825Z,24.08
2017-05-06T12:08:32.859Z,24.13
2017-05-06T12:09:33.181Z,24.15
2017-05-06T12:10:32.904Z,24.1
2017-05-06T12:11:33.185Z,24.09
2017-05-06T12:12:32.970Z,24.05
2017-05-06T12:13:33.303Z,24.09
2017-05-06T12:14:33.335Z,24.1
2017-05-06T12:15:33.360Z,24.08
2017-05-06T12:16:33.332Z,24.08
2017-05-06T12:17:32.793Z,24.09
2017-05-06T12:18:33.455Z,24.05
2017-05-06T12:19:33.472Z,24.06
2017-05-06T12:20:33.198Z,24.02
2017-05-06T12:21:33.780Z,24
2017-05-06T12:22:33.253Z,24.02
2017-05-06T12:23:33.278Z,24.06
2017-05-06T12:24:33.614Z,23.97
2017-05-06T12:25:33.644Z,24
2017-05-06T12:26:33.925Z,24.02
2017-05-06T12:27:33.715Z,24
2017-05-06T12:28:33.423Z,23.98
2017-05-06T12:29:33.763Z,23.94
2017-05-06T12:30:33.784Z,23.93
2017-05-06T12:31:34.061Z,23.94
2017-05-06T12:32:33.868Z,23.88
2017-05-06T12:33:33.873Z,23.93
2017-05-06T12:34:33.911Z,23.98
2017-05-06T12:35:33.924Z,24
2017-05-06T12:36:34.212Z,23.9
2017-05-06T12:37:33.985Z,23.8
2017-05-06T12:38:34.018Z,23.88
2017-05-06T12:39:34.046Z,23.98
2017-05-06T12:40:34.075Z,23.9
2017-05-06T12:41:34.044Z,23.95
2017-05-06T12:42:34.136Z,23.98
2017-05-06T12:43:33.844Z,23.87
2017-05-06T12:44:34.186Z,24
2017-05-06T12:45:34.216Z,23.9
2017-05-06T12:46:34.185Z,23.79
2017-05-06T12:47:34.273Z,23.93
2017-05-06T12:48:34.302Z,23.94
2017-05-06T12:49:34.329Z,23.84
2017-05-06T12:50:34.359Z,23.84
2017-05-06T12:51:34.635Z,23.91
2017-05-06T12:52:34.104Z,23.85
2017-05-06T12:53:34.440Z,23.9
2017-05-06T12:54:34.461Z,23.88
2017-05-06T12:55:34.503Z,23.85
2017-05-06T12:56:34.784Z,23.88
2017-05-06T12:57:34.240Z,23.83
2017-05-06T12:58:34.586Z,23.88
2017-05-06T12:59:34.607Z,23.87